createdAt,value
2018-03-17T00:00:02.220Z,7.1
2018-03-17T00:15:02.548Z,7.1
2018-03-17T00:30:02.900Z,7
2018-03-17T00:45:03.146Z,7
2018-03-17T01:00:02.392Z,7
2018-03-17T01:15:02.678Z,6.9
2018-03-17T01:30:02.975Z,6.9
2018-03-17T01:45:02.345Z,6.9
2018-03-17T02:00:02.585Z,6.9
2018-03-17T02:15:02.826Z,6.9
2018-03-17T02:30:03.182Z,6.9
2018-03-17T02:45:02.428Z,6.8
2018-03-17T03:00:02.718Z,6.8
2018-03-17T03:15:02.922Z,6.8
2018-03-17T03:30:02.278Z,6.8
2018-03-17T03:45:02.515Z,6.7
2018-03-17T04:00:02.780Z,6.7
2018-03-17T04:15:02.996Z,6.7
2018-03-17T04:30:02.328Z,6.7
2018-03-17T04:45:02.562Z,6.6
2018-03-17T05:00:02.921Z,6.6
2018-03-17T05:15:03.207Z,6.6
2018-03-17T05:30:02.826Z,6.6
2018-03-17T05:45:03.103Z,6.6
2018-03-17T06:00:02.394Z,6.5
2018-03-17T06:15:02.628Z,6.5
2018-03-17T06:30:03.102Z,6.5
2018-03-17T06:45:02.436Z,6.5
2018-03-17T07:00:03.009Z,6.4
2018-03-17T07:15:02.621Z,6.4
2018-03-17T07:30:03.037Z,6.4
2018-03-17T07:45:02.299Z,6.4
2018-03-17T08:00:02.583Z,6.4
2018-03-17T08:15:02.916Z,6.4
2018-03-17T08:30:02.300Z,6.5
2018-03-17T08:45:02.548Z,6.5
2018-03-17T09:00:03.072Z,6.5
2018-03-17T09:15:02.334Z,6.5
2018-03-17T09:30:02.706Z,6.5
2018-03-17T09:45:02.950Z,6.5
2018-03-17T10:00:03.243Z,6.6
2018-03-17T10:15:02.677Z,6.6
2018-03-17T10:30:03.078Z,6.6
2018-03-17T10:45:02.342Z,6.6
2018-03-17T11:00:02.673Z,6.6
2018-03-17T11:15:03.041Z,6.6
2018-03-17T11:30:02.442Z,6.6
2018-03-17T11:45:02.887Z,6.6
2018-03-17T12:00:03.162Z,6.6
2018-03-17T12:15:02.449Z,6.6
2018-03-17T12:30:02.798Z,6.6
2018-03-17T12:45:03.006Z,6.6
2018-03-17T13:00:02.291Z,6.6
2018-03-17T13:15:02.573Z,6.6
2018-03-17T13:30:03.027Z,6.6
2018-03-17T13:45:02.281Z,6.6
2018-03-17T14:00:02.608Z,6.6
2018-03-17T14:15:02.886Z,6.6
2018-03-17T14:30:02.423Z,6.6
2018-03-17T14:45:02.742Z,6.6
2018-03-17T15:00:03.129Z,6.6
2018-03-17T15:15:02.382Z,6.6
2018-03-17T15:30:02.712Z,6.6
2018-03-17T15:45:02.914Z,6.6
2018-03-17T16:00:03.289Z,6.6
2018-03-17T16:15:02.365Z,6.6
2018-03-17T16:30:02.695Z,6.5
2018-03-17T16:45:02.975Z,6.5
2018-03-17T17:00:02.226Z,6.5
2018-03-17T17:15:02.531Z,6.5
2018-03-17T17:30:02.909Z,6.4
2018-03-17T17:45:03.199Z,6.4
2018-03-17T18:00:02.448Z,6.4
2018-03-17T18:15:02.685Z,6.4
2018-03-17T18:30:03.006Z,6.4
2018-03-17T18:45:02.305Z,6.4
2018-03-17T19:00:02.513Z,6.4
2018-03-17T19:15:02.766Z,6.4
2018-03-17T19:30:03.138Z,6.4
2018-03-17T19:45:02.415Z,6.4
2018-03-17T20:00:02.638Z,6.4
2018-03-17T20:15:02.904Z,6.3
2018-03-17T20:30:02.215Z,6.3
2018-03-17T20:45:02.449Z,6.3
2018-03-17T21:00:02.713Z,6.3
2018-03-17T21:15:02.918Z,6.2
2018-03-17T21:30:02.275Z,6.2
2018-03-17T21:45:02.526Z,6.2
2018-03-17T22:00:02.773Z,6.2
2018-03-17T22:15:03.032Z,6.2
2018-03-17T22:30:02.426Z,6.1
2018-03-17T22:45:02.664Z,6.1
2018-03-17T23:00:02.969Z,6.1
2018-03-17T23:15:02.293Z,6.1
2018-03-17T23:30:02.843Z,6.1
2018-03-17T23:45:03.108Z,6
